createdAt,value
2017-11-03T00:00:07.085Z,16.83
2017-11-03T00:02:34.749Z,15.53
2017-11-03T00:05:02.319Z,17.43
2017-11-03T00:07:29.883Z,15.53
2017-11-03T00:09:57.433Z,15.67
2017-11-03T00:12:25.010Z,15.80
2017-11-03T00:14:52.550Z,17.73
2017-11-03T00:17:20.126Z,16.97
2017-11-03T00:19:47.683Z,16.07
2017-11-03T00:22:15.278Z,16.67
2017-11-03T00:24:42.878Z,16.50
2017-11-03T00:27:10.444Z,16.23
2017-11-03T00:29:37.989Z,15.47
2017-11-03T00:32:05.542Z,16.30
2017-11-03T00:34:33.103Z,14.70
2017-11-03T00:37:00.689Z,16.93
2017-11-03T00:39:28.232Z,16.67
2017-11-03T00:41:55.784Z,17.17
2017-11-03T00:44:23.362Z,17.60
2017-11-03T00:46:50.911Z,17.57
2017-11-03T00:49:18.508Z,17.23
2017-11-03T00:51:46.065Z,17.27
2017-11-03T00:54:13.726Z,16.73
2017-11-03T00:56:41.305Z,18.07
2017-11-03T00:59:08.902Z,18.53
2017-11-03T01:01:36.703Z,16.93
2017-11-03T01:04:04.268Z,16.67
2017-11-03T01:06:31.840Z,17.13
2017-11-03T01:08:59.389Z,17.97
2017-11-03T01:11:26.941Z,17.00
2017-11-03T01:13:54.521Z,17.20
2017-11-03T01:16:22.161Z,16.73
2017-11-03T01:18:49.731Z,18.43
2017-11-03T01:23:51.160Z,18.13
2017-11-03T01:26:18.791Z,18.53
2017-11-03T01:28:46.356Z,18.90
2017-11-03T01:31:13.919Z,18.30
2017-11-03T01:33:41.476Z,17.40
2017-11-03T01:36:09.287Z,18.30
2017-11-03T01:38:36.832Z,18.90
2017-11-03T01:41:04.397Z,18.67
2017-11-03T01:43:31.965Z,18.00
2017-11-03T01:45:59.513Z,18.80
2017-11-03T01:48:27.112Z,18.30
2017-11-03T01:50:54.654Z,18.40
2017-11-03T01:53:22.225Z,19.13
2017-11-03T01:55:49.809Z,18.30
2017-11-03T01:58:18.179Z,17.30
2017-11-03T02:00:45.828Z,19.00
2017-11-03T02:03:13.407Z,18.73
2017-11-03T02:05:40.969Z,19.60
2017-11-03T02:08:08.511Z,18.43
2017-11-03T02:10:36.068Z,18.70
2017-11-03T02:13:03.631Z,17.13
2017-11-03T02:15:31.657Z,18.77
2017-11-03T02:17:59.560Z,19.40
2017-11-03T02:20:27.113Z,18.67
2017-11-03T02:22:54.681Z,19.20
2017-11-03T02:25:22.257Z,17.77
2017-11-03T02:27:49.783Z,19.87
2017-11-03T02:30:17.348Z,18.93
2017-11-03T02:32:44.890Z,20.20
2017-11-03T02:35:12.436Z,20.33
2017-11-03T02:37:40.009Z,19.40
2017-11-03T02:40:07.574Z,18.17
2017-11-03T02:42:35.232Z,19.23
2017-11-03T02:45:02.780Z,19.80
2017-11-03T02:47:30.410Z,17.87
2017-11-03T02:49:57.985Z,18.70
2017-11-03T02:52:25.529Z,19.53
2017-11-03T02:54:53.101Z,19.20
2017-11-03T02:57:20.664Z,19.67
2017-11-03T02:59:48.249Z,19.80
2017-11-03T03:02:15.781Z,19.30
2017-11-03T03:04:43.573Z,18.93
2017-11-03T03:07:11.141Z,19.50
2017-11-03T03:09:38.686Z,17.87
2017-11-03T03:12:06.387Z,19.20
2017-11-03T03:14:33.936Z,19.47
2017-11-03T03:17:01.476Z,19.37
2017-11-03T03:19:29.106Z,19.20
2017-11-03T03:21:56.671Z,19.93
2017-11-03T03:24:24.345Z,19.60
2017-11-03T03:26:52.066Z,19.60
2017-11-03T03:29:19.625Z,19.33
2017-11-03T03:31:47.184Z,20.20
2017-11-03T03:34:14.735Z,19.67
2017-11-03T03:36:42.378Z,19.53
2017-11-03T03:39:09.931Z,20.13
2017-11-03T03:41:37.646Z,19.17
2017-11-03T03:44:05.220Z,19.53
2017-11-03T03:46:32.912Z,19.90
2017-11-03T03:49:00.441Z,19.87
2017-11-03T03:51:28.020Z,19.87
2017-11-03T03:53:55.565Z,19.20
2017-11-03T03:56:23.123Z,20.60
2017-11-03T03:58:50.674Z,18.60
2017-11-03T04:01:18.276Z,20.10
2017-11-03T04:03:45.897Z,18.63
2017-11-03T04:06:13.460Z,18.60
2017-11-03T04:08:41.021Z,19.27
2017-11-03T04:11:08.862Z,19.73
2017-11-03T04:13:36.419Z,21.53
2017-11-03T04:16:03.978Z,20.37
2017-11-03T04:18:31.559Z,18.83
2017-11-03T04:20:59.118Z,18.53
2017-11-03T04:23:27.079Z,20.20
2017-11-03T04:25:54.612Z,19.40
2017-11-03T04:28:22.178Z,19.83
2017-11-03T04:30:49.862Z,19.20
2017-11-03T04:33:17.446Z,20.23
2017-11-03T04:35:45.167Z,20.23
2017-11-03T04:38:12.710Z,20.70
2017-11-03T04:40:40.238Z,20.80
2017-11-03T04:43:07.813Z,20.77
2017-11-03T04:45:35.394Z,20.33
2017-11-03T04:48:03.268Z,20.57
2017-11-03T04:50:30.883Z,21.90
2017-11-03T04:52:58.428Z,20.27
2017-11-03T04:55:25.985Z,20.20
2017-11-03T04:57:53.524Z,21.07
2017-11-03T05:00:21.379Z,20.97
2017-11-03T05:02:48.960Z,19.57
2017-11-03T05:05:16.505Z,21.20
2017-11-03T05:07:44.066Z,20.03
2017-11-03T05:10:11.606Z,20.80
2017-11-03T05:12:39.184Z,21.13
2017-11-03T05:15:06.727Z,20.73
2017-11-03T05:17:34.714Z,21.20
2017-11-03T05:20:02.268Z,21.10
2017-11-03T05:22:29.844Z,21.87
2017-11-03T05:24:57.425Z,21.93
2017-11-03T05:27:24.977Z,21.53
2017-11-03T05:29:52.551Z,22.50
2017-11-03T05:32:20.090Z,22.60
2017-11-03T05:34:47.940Z,23.17
2017-11-03T05:37:15.548Z,23.00
2017-11-03T05:39:43.085Z,23.00
2017-11-03T05:42:10.652Z,23.10
2017-11-03T05:44:38.214Z,22.70
2017-11-03T05:47:06.142Z,22.90
2017-11-03T05:49:33.678Z,23.60
2017-11-03T05:52:01.236Z,23.17
2017-11-03T05:54:28.937Z,23.60
2017-11-03T05:56:56.571Z,24.00
2017-11-03T05:59:24.137Z,23.30
2017-11-03T06:01:51.722Z,24.60
2017-11-03T06:04:19.293Z,23.97
2017-11-03T06:06:46.835Z,24.13
2017-11-03T06:09:14.355Z,24.30
2017-11-03T06:11:41.921Z,24.60
2017-11-03T06:14:09.478Z,25.50
2017-11-03T06:16:37.372Z,24.40
2017-11-03T06:19:05.011Z,23.20
2017-11-03T06:21:32.568Z,25.00
2017-11-03T06:24:00.138Z,25.10
2017-11-03T06:26:27.684Z,24.87
2017-11-03T06:28:55.288Z,24.10
2017-11-03T06:31:22.822Z,23.30
2017-11-03T06:33:50.391Z,22.80
2017-11-03T06:36:18.175Z,24.60
2017-11-03T06:38:45.720Z,24.80
2017-11-03T06:41:13.583Z,24.23
2017-11-03T06:43:41.118Z,23.90
2017-11-03T06:46:08.663Z,24.60
2017-11-03T06:48:36.260Z,25.60
2017-11-03T06:51:03.804Z,24.37
2017-11-03T06:53:31.410Z,25.73
2017-11-03T06:55:59.175Z,24.70
2017-11-03T06:58:27.137Z,23.30
2017-11-03T07:00:54.692Z,25.07
2017-11-03T07:03:22.240Z,23.53
2017-11-03T07:05:49.841Z,24.83
2017-11-03T07:08:17.389Z,25.90
2017-11-03T07:10:44.957Z,24.70
2017-11-03T07:13:12.521Z,24.77
2017-11-03T07:15:40.084Z,25.17
2017-11-03T07:18:07.663Z,24.97
2017-11-03T07:20:35.220Z,25.77
2017-11-03T07:23:02.799Z,25.50
2017-11-03T07:25:30.332Z,25.30
2017-11-03T07:27:57.889Z,26.03
2017-11-03T07:30:25.444Z,25.70
2017-11-03T07:32:53.379Z,25.73
2017-11-03T07:35:21.087Z,26.13
2017-11-03T07:37:49.189Z,29.60
2017-11-03T07:40:16.780Z,28.10
2017-11-03T07:42:44.337Z,26.27
2017-11-03T07:45:12.894Z,24.20
2017-11-03T07:47:40.488Z,25.27
2017-11-03T07:50:08.076Z,26.40
2017-11-03T07:52:35.629Z,24.53
2017-11-03T07:55:03.562Z,24.57
2017-11-03T07:57:31.101Z,24.23
2017-11-03T07:59:58.651Z,25.80
2017-11-03T08:02:26.236Z,24.37
2017-11-03T08:04:53.773Z,24.73
2017-11-03T08:07:21.359Z,24.63
2017-11-03T08:09:48.916Z,23.73
2017-11-03T08:12:16.554Z,23.37
2017-11-03T08:14:44.189Z,23.40
2017-11-03T08:17:11.757Z,25.57
2017-11-03T08:19:39.318Z,24.70
2017-11-03T08:22:06.897Z,24.47
2017-11-03T08:24:34.503Z,24.83
2017-11-03T08:27:02.087Z,25.37
2017-11-03T08:29:29.679Z,24.63
2017-11-03T08:31:57.242Z,24.97
2017-11-03T08:34:24.813Z,23.20
2017-11-03T08:36:52.403Z,24.50
2017-11-03T08:39:19.978Z,27.30
2017-11-03T08:41:47.565Z,24.97
2017-11-03T08:44:15.198Z,26.03
2017-11-03T08:46:42.773Z,26.40
2017-11-03T08:49:10.344Z,25.73
2017-11-03T08:51:37.898Z,27.27
2017-11-03T08:54:05.644Z,27.40
2017-11-03T08:56:33.223Z,25.93
2017-11-03T08:59:01.103Z,25.73
2017-11-03T09:01:28.695Z,26.60
2017-11-03T09:03:56.304Z,26.70
2017-11-03T09:06:24.042Z,26.60
2017-11-03T09:08:51.639Z,26.13
2017-11-03T09:11:19.217Z,25.40
2017-11-03T09:13:46.785Z,27.50
2017-11-03T09:16:14.346Z,24.77
2017-11-03T09:18:42.021Z,27.27
2017-11-03T09:21:09.569Z,26.87
2017-11-03T09:23:37.162Z,26.50
2017-11-03T09:26:04.728Z,26.90
2017-11-03T09:28:32.304Z,29.00
2017-11-03T09:30:59.894Z,26.60
2017-11-03T09:33:27.448Z,24.97
2017-11-03T09:35:55.049Z,26.70
2017-11-03T09:38:22.594Z,27.47
2017-11-03T09:40:50.147Z,25.67
2017-11-03T09:43:17.788Z,25.37
2017-11-03T09:45:45.356Z,25.93
2017-11-03T09:48:12.935Z,26.93
2017-11-03T09:50:40.491Z,27.33
2017-11-03T09:53:08.394Z,27.53
2017-11-03T09:55:35.940Z,26.67
2017-11-03T09:58:03.493Z,27.60
2017-11-03T10:00:31.060Z,29.23
2017-11-03T10:02:58.630Z,27.43
2017-11-03T10:05:26.202Z,27.73
2017-11-03T10:07:53.753Z,27.87
2017-11-03T10:10:21.346Z,30.80
2017-11-03T10:12:48.899Z,28.90
2017-11-03T10:15:16.460Z,27.57
2017-11-03T10:17:44.042Z,26.33
2017-11-03T10:20:11.577Z,25.20
2017-11-03T10:22:39.164Z,25.97
2017-11-03T10:25:06.731Z,26.00
2017-11-03T10:27:34.340Z,27.27
2017-11-03T10:30:01.905Z,24.93
2017-11-03T10:32:29.467Z,26.00
2017-11-03T10:34:57.063Z,23.70
2017-11-03T10:37:24.742Z,25.20
2017-11-03T10:39:52.330Z,25.80
2017-11-03T10:42:19.985Z,24.43
2017-11-03T10:44:47.600Z,22.97
2017-11-03T10:47:15.186Z,25.37
2017-11-03T10:49:42.733Z,24.40
2017-11-03T10:52:10.314Z,27.70
2017-11-03T10:54:37.857Z,26.30
2017-11-03T10:57:05.766Z,27.70
2017-11-03T10:59:33.381Z,27.43
2017-11-03T11:02:00.997Z,26.30
2017-11-03T11:04:28.583Z,26.57
2017-11-03T11:06:56.153Z,26.43
2017-11-03T11:09:23.882Z,25.60
2017-11-03T11:11:51.429Z,26.10
2017-11-03T11:14:18.967Z,28.47
2017-11-03T11:16:46.538Z,28.00
2017-11-03T11:19:14.115Z,29.30
2017-11-03T11:21:41.983Z,29.00
2017-11-03T11:24:09.522Z,30.30
2017-11-03T11:26:37.071Z,29.27
2017-11-03T11:29:04.682Z,29.13
2017-11-03T11:31:32.240Z,29.27
2017-11-03T11:33:59.819Z,29.37
2017-11-03T11:36:27.368Z,28.90
2017-11-03T11:38:55.016Z,26.93
2017-11-03T11:41:22.590Z,27.87
2017-11-03T11:43:50.137Z,30.20
2017-11-03T11:46:17.704Z,30.43
2017-11-03T11:48:45.277Z,27.87
2017-11-03T11:51:12.919Z,29.90
2017-11-03T11:53:40.489Z,29.00
2017-11-03T11:56:08.535Z,28.20
2017-11-03T11:58:36.595Z,29.77
2017-11-03T12:01:04.154Z,28.03
2017-11-03T12:03:31.825Z,29.03
2017-11-03T12:05:59.391Z,28.27
2017-11-03T12:08:26.943Z,27.73
2017-11-03T12:10:54.492Z,28.20
2017-11-03T12:13:22.050Z,27.40
2017-11-03T12:15:49.617Z,28.57
2017-11-03T12:18:17.339Z,26.67
2017-11-03T12:20:44.897Z,28.13
2017-11-03T12:23:12.565Z,25.50
2017-11-03T12:25:40.250Z,24.20
2017-11-03T12:28:07.838Z,24.10
2017-11-03T12:30:35.393Z,24.20
2017-11-03T12:33:02.976Z,24.67
2017-11-03T12:35:30.572Z,25.10
2017-11-03T12:37:58.149Z,25.07
2017-11-03T12:40:25.718Z,25.30
2017-11-03T12:42:53.285Z,26.07
2017-11-03T12:45:20.835Z,25.27
2017-11-03T12:47:48.524Z,23.30
2017-11-03T12:50:16.074Z,25.17
2017-11-03T12:52:44.073Z,27.07
2017-11-03T12:55:11.648Z,24.40
2017-11-03T12:57:39.238Z,25.00
2017-11-03T13:00:06.794Z,25.83
2017-11-03T13:02:34.358Z,25.17
2017-11-03T13:05:01.949Z,23.63
2017-11-03T13:07:29.506Z,24.23
2017-11-03T13:09:57.083Z,26.57
2017-11-03T13:12:24.780Z,22.50
2017-11-03T13:14:52.361Z,23.30
2017-11-03T13:17:19.935Z,25.00
2017-11-03T13:19:47.509Z,23.60
2017-11-03T13:22:15.202Z,22.77
2017-11-03T13:24:42.846Z,22.90
2017-11-03T13:27:10.515Z,23.77
2017-11-03T13:29:38.103Z,23.17
2017-11-03T13:32:05.676Z,22.10
2017-11-03T13:34:33.234Z,23.00
2017-11-03T13:37:00.785Z,23.37
2017-11-03T13:39:28.719Z,23.80
2017-11-03T13:41:56.264Z,23.30
2017-11-03T13:44:23.817Z,24.73
2017-11-03T13:46:51.424Z,23.57
2017-11-03T13:49:18.980Z,22.93
2017-11-03T13:51:46.558Z,21.67
2017-11-03T13:54:14.119Z,22.27
2017-11-03T13:56:41.658Z,23.20
2017-11-03T13:59:09.249Z,23.20
2017-11-03T14:01:36.788Z,23.37
2017-11-03T14:04:04.387Z,23.77
2017-11-03T14:09:05.976Z,21.77
2017-11-03T14:11:33.544Z,22.97
2017-11-03T14:14:01.186Z,23.20
2017-11-03T14:16:28.831Z,20.97
2017-11-03T14:18:56.413Z,22.07
2017-11-03T14:21:24.035Z,22.30
2017-11-03T14:23:51.612Z,23.77
2017-11-03T14:26:19.155Z,22.70
2017-11-03T14:28:46.751Z,22.83
2017-11-03T14:31:14.340Z,22.60
2017-11-03T14:33:41.932Z,22.57
2017-11-03T14:36:09.493Z,24.10
2017-11-03T14:38:37.127Z,23.07
2017-11-03T14:41:04.674Z,23.57
2017-11-03T14:43:32.239Z,22.60
2017-11-03T14:45:59.830Z,22.30
2017-11-03T14:48:27.404Z,22.60
2017-11-03T14:50:55.002Z,21.43
2017-11-03T14:53:22.577Z,23.13
2017-11-03T14:55:50.183Z,22.77
2017-11-03T14:58:17.773Z,23.30
2017-11-03T15:00:45.332Z,23.43
2017-11-03T15:03:12.960Z,21.50
2017-11-03T15:05:40.512Z,23.67
2017-11-03T15:08:08.105Z,24.93
2017-11-03T15:10:35.667Z,23.20
2017-11-03T15:13:03.256Z,21.80
2017-11-03T15:15:30.808Z,23.60
2017-11-03T15:17:58.348Z,23.37
2017-11-03T15:20:26.064Z,22.40
2017-11-03T15:22:53.632Z,22.20
2017-11-03T15:25:21.210Z,22.13
2017-11-03T15:27:48.780Z,22.03
2017-11-03T15:30:16.378Z,23.37
2017-11-03T15:32:43.932Z,22.97
2017-11-03T15:35:11.501Z,23.80
2017-11-03T15:37:39.100Z,24.60
2017-11-03T15:40:06.658Z,25.07
2017-11-03T15:42:34.267Z,24.37
2017-11-03T15:45:01.838Z,23.70
2017-11-03T15:47:29.385Z,24.30
2017-11-03T15:49:56.990Z,25.40
2017-11-03T15:52:24.682Z,24.83
2017-11-03T15:54:52.375Z,23.13
2017-11-03T15:57:19.932Z,24.40
2017-11-03T15:59:47.541Z,23.60
2017-11-03T16:02:15.093Z,27.00
2017-11-03T16:04:42.669Z,32.00
2017-11-03T16:07:10.281Z,31.20
2017-11-03T16:09:37.846Z,28.80
2017-11-03T16:12:05.424Z,29.63
2017-11-03T16:14:33.053Z,31.43
2017-11-03T16:17:00.649Z,29.27
2017-11-03T16:19:28.202Z,27.57
2017-11-03T16:21:55.928Z,27.17
2017-11-03T16:24:23.525Z,26.50
2017-11-03T16:26:51.090Z,25.87
2017-11-03T16:29:18.711Z,26.97
2017-11-03T16:31:46.256Z,25.27
2017-11-03T16:34:13.823Z,26.07
2017-11-03T16:36:41.407Z,26.07
2017-11-03T16:39:09.040Z,24.17
2017-11-03T16:41:36.639Z,24.27
2017-11-03T16:44:04.706Z,25.93
2017-11-03T16:46:32.256Z,25.17
2017-11-03T16:48:59.877Z,24.80
2017-11-03T16:51:27.451Z,24.30
2017-11-03T16:53:55.067Z,24.40
2017-11-03T16:56:22.640Z,26.30
2017-11-03T16:58:50.233Z,26.83
2017-11-03T17:01:17.784Z,27.27
2017-11-03T17:03:45.375Z,27.03
2017-11-03T17:06:12.920Z,25.83
2017-11-03T17:08:40.547Z,27.50
2017-11-03T17:11:08.152Z,26.90
2017-11-03T17:13:35.803Z,27.97
2017-11-03T17:16:03.402Z,33.37
2017-11-03T17:18:31.151Z,30.60
2017-11-03T17:20:58.859Z,32.10
2017-11-03T17:23:26.485Z,31.80
2017-11-03T17:25:54.047Z,32.77
2017-11-03T17:28:21.627Z,31.73
2017-11-03T17:30:49.293Z,29.37
2017-11-03T17:33:16.895Z,31.50
2017-11-03T17:35:44.553Z,31.40
2017-11-03T17:38:12.165Z,31.90
2017-11-03T17:40:39.789Z,31.83
2017-11-03T17:43:07.490Z,32.97
2017-11-03T17:45:35.059Z,34.50
2017-11-03T17:48:02.769Z,32.37
2017-11-03T17:50:30.542Z,34.60
2017-11-03T17:52:58.144Z,33.47
2017-11-03T17:55:25.808Z,32.23
2017-11-03T17:57:54.360Z,32.23
2017-11-03T18:00:21.960Z,32.40
2017-11-03T18:02:49.555Z,31.40
2017-11-03T18:05:17.151Z,30.43
2017-11-03T18:07:44.750Z,30.87
2017-11-03T18:10:12.332Z,28.97
2017-11-03T18:12:39.918Z,30.50
2017-11-03T18:15:07.496Z,32.50
2017-11-03T18:17:35.108Z,31.13
2017-11-03T18:20:02.678Z,31.70
2017-11-03T18:22:30.305Z,30.33
2017-11-03T18:24:57.961Z,30.13
2017-11-03T18:27:25.531Z,29.73
2017-11-03T18:29:53.106Z,30.13
2017-11-03T18:32:20.677Z,30.00
2017-11-03T18:34:48.301Z,30.33
2017-11-03T18:37:15.895Z,29.43
2017-11-03T18:39:43.473Z,29.80
2017-11-03T18:42:11.314Z,30.77
2017-11-03T18:44:39.028Z,31.10
2017-11-03T18:47:06.646Z,32.60
2017-11-03T18:49:34.236Z,33.40
2017-11-03T18:52:01.871Z,32.03
2017-11-03T18:54:29.573Z,38.17
2017-11-03T18:56:57.309Z,47.60
2017-11-03T18:59:24.928Z,38.40
2017-11-03T19:01:53.512Z,39.57
2017-11-03T19:04:21.119Z,39.20
2017-11-03T19:06:48.782Z,38.90
2017-11-03T19:09:16.528Z,35.30
2017-11-03T19:14:18.357Z,32.57
2017-11-03T19:16:46.134Z,34.60
2017-11-03T19:19:13.985Z,42.00
2017-11-03T19:21:41.705Z,37.43
2017-11-03T19:24:09.421Z,38.90
2017-11-03T19:26:37.049Z,42.33
2017-11-03T19:29:05.146Z,36.83
2017-11-03T19:31:33.275Z,36.93
2017-11-03T19:34:01.114Z,35.87
2017-11-03T19:36:28.893Z,34.33
2017-11-03T19:38:56.666Z,40.03
2017-11-03T19:41:24.506Z,37.63
2017-11-03T19:43:52.402Z,40.50
2017-11-03T19:46:20.246Z,38.37
2017-11-03T19:48:47.928Z,48.00
2017-11-03T19:51:16.398Z,39.03
2017-11-03T19:53:44.086Z,42.70
2017-11-03T19:56:11.780Z,40.07
2017-11-03T19:58:39.568Z,36.27
2017-11-03T20:01:07.464Z,37.93
2017-11-03T20:03:35.167Z,33.70
2017-11-03T20:06:02.874Z,31.80
2017-11-03T20:08:30.603Z,33.10
2017-11-03T20:10:58.396Z,33.67
2017-11-03T20:13:26.337Z,34.00
2017-11-03T20:15:54.168Z,32.40
2017-11-03T20:18:21.993Z,31.20
2017-11-03T20:20:49.757Z,31.27
2017-11-03T20:23:17.771Z,31.90
2017-11-03T20:25:45.525Z,32.80
2017-11-03T20:28:13.299Z,31.67
2017-11-03T20:30:42.070Z,33.30
2017-11-03T20:33:09.818Z,32.30
2017-11-03T20:35:37.557Z,32.20
2017-11-03T20:38:06.084Z,33.33
2017-11-03T20:40:33.861Z,32.13
2017-11-03T20:43:01.816Z,33.37
2017-11-03T20:45:29.686Z,36.70
2017-11-03T20:47:57.662Z,40.90
2017-11-03T20:50:25.427Z,39.67
2017-11-03T21:05:53.490Z,33.43
2017-11-03T21:08:21.334Z,37.90
2017-11-03T21:10:49.181Z,40.00
2017-11-03T21:13:17.087Z,41.40
2017-11-03T21:15:44.943Z,36.63
2017-11-03T21:18:12.812Z,36.17
2017-11-03T21:20:40.683Z,34.73
2017-11-03T21:23:08.544Z,32.90
2017-11-03T21:25:36.413Z,33.20
2017-11-03T21:28:05.097Z,34.40
2017-11-03T21:30:33.359Z,33.43
2017-11-03T21:33:01.126Z,32.80
2017-11-03T21:35:28.865Z,34.43
2017-11-03T21:37:56.637Z,33.03
2017-11-03T21:40:24.363Z,32.23
2017-11-03T21:42:52.889Z,32.43
2017-11-03T21:45:20.819Z,32.87
2017-11-03T21:47:48.592Z,33.30
2017-11-03T21:50:16.275Z,33.43
2017-11-03T21:52:43.909Z,32.20
2017-11-03T21:55:11.523Z,31.60
2017-11-03T21:57:39.146Z,32.40
2017-11-03T22:00:06.715Z,32.07
2017-11-03T22:02:34.334Z,32.17
2017-11-03T22:05:02.107Z,31.80
2017-11-03T22:07:29.714Z,32.97
2017-11-03T22:09:57.384Z,33.43
2017-11-03T22:12:24.972Z,34.20
2017-11-03T22:14:52.589Z,34.00
2017-11-03T22:17:20.143Z,33.40
2017-11-03T22:19:47.702Z,33.47
2017-11-03T22:22:15.306Z,35.17
2017-11-03T22:24:43.083Z,32.43
2017-11-03T22:27:10.680Z,33.37
2017-11-03T22:29:38.241Z,33.90
2017-11-03T22:32:05.827Z,35.20
2017-11-03T22:34:33.405Z,34.60
2017-11-03T22:37:01.019Z,36.87
2017-11-03T22:39:28.600Z,35.03
2017-11-03T22:41:56.157Z,34.00
2017-11-03T22:44:23.711Z,32.93
2017-11-03T22:46:51.273Z,32.80
2017-11-03T22:49:18.883Z,33.77
2017-11-03T22:51:46.458Z,32.37
2017-11-03T22:54:14.039Z,32.13
2017-11-03T22:56:41.943Z,32.07
2017-11-03T22:59:09.519Z,31.40
2017-11-03T23:01:37.086Z,31.00
2017-11-03T23:04:04.665Z,31.17
2017-11-03T23:06:32.357Z,32.13
2017-11-03T23:08:59.942Z,31.27
2017-11-03T23:11:27.515Z,32.00
2017-11-03T23:13:55.078Z,31.77
2017-11-03T23:16:22.677Z,31.67
2017-11-03T23:18:50.290Z,32.27
2017-11-03T23:21:17.933Z,32.87
2017-11-03T23:23:45.505Z,31.73
2017-11-03T23:26:13.071Z,34.07
2017-11-03T23:28:40.670Z,33.20
2017-11-03T23:31:08.328Z,32.17
2017-11-03T23:33:35.908Z,31.83
2017-11-03T23:36:03.464Z,29.87
2017-11-03T23:38:31.178Z,31.03
2017-11-03T23:40:58.802Z,31.83
2017-11-03T23:43:26.392Z,30.50
2017-11-03T23:45:53.979Z,28.03
2017-11-03T23:48:21.555Z,29.27
2017-11-03T23:50:49.101Z,27.90
2017-11-03T23:53:16.662Z,27.30
2017-11-03T23:55:44.214Z,28.53
2017-11-03T23:58:11.848Z,26.47
